Time;durP1;ratioP1;P1;durP2;ratioP2;P2;SDS_P1;SDS_P2;PMS_P1;PMS_P2;Temp;Humidity;BMP_temperature;BMP_pressure;BME280_temperature;BME280_humidity;BME280_pressure;Samples;Min_cycle;Max_cycle;Signal;HPM_P1;HPM_P2
2023/11/16 00:00:59;;;;;;;13.03;4.90;;;;;;;;;;5113255;28;20470;-66
2023/11/16 00:03:26;;;;;;;14.47;5.17;;;;;;;;;;5114940;28;20492;-67
2023/11/16 00:05:52;;;;;;;11.73;5.77;;;;;;;;;;5119838;28;21362;-67
2023/11/16 00:08:18;;;;;;;10.63;5.40;;;;;;;;;;5123207;27;20466;-67
2023/11/16 00:10:46;;;;;;;11.93;4.67;;;;;;;;;;5123564;27;20461;-67
2023/11/16 00:13:14;;;;;;;15.17;5.50;;;;;;;;;;5125681;27;20473;-66
2023/11/16 00:15:40;;;;;;;7.97;4.93;;;;;;;;;;5117031;27;20662;-66
2023/11/16 00:18:07;;;;;;;8.07;5.30;;;;;;;;;;5126698;27;20968;-66
2023/11/16 00:20:32;;;;;;;10.37;5.20;;;;;;;;;;5116073;27;20451;-66
2023/11/16 00:22:59;;;;;;;12.10;5.27;;;;;;;;;;5104215;28;20450;-66
2023/11/16 00:25:26;;;;;;;12.13;4.57;;;;;;;;;;5117905;27;20325;-66
2023/11/16 00:27:54;;;;;;;13.90;4.70;;;;;;;;;;5121503;27;20477;-66
2023/11/16 00:30:20;;;;;;;10.20;5.10;;;;;;;;;;5117227;27;20871;-65
2023/11/16 00:32:46;;;;;;;7.67;4.47;;;;;;;;;;5120819;27;21147;-66
2023/11/16 00:35:13;;;;;;;6.70;4.40;;;;;;;;;;5115825;27;20476;-66
2023/11/16 00:37:41;;;;;;;6.70;4.50;;;;;;;;;;5117078;27;20485;-66
2023/11/16 00:40:09;;;;;;;8.50;5.90;;;;;;;;;;5112575;27;20472;-66
2023/11/16 00:42:36;;;;;;;11.83;4.73;;;;;;;;;;5122067;27;20506;-65
2023/11/16 00:45:06;;;;;;;7.73;5.40;;;;;;;;;;5121106;27;20532;-65
2023/11/16 00:47:32;;;;;;;9.80;5.90;;;;;;;;;;5118816;27;20496;-66
2023/11/16 00:49:58;;;;;;;9.60;5.17;;;;;;;;;;5117570;27;20481;-66
2023/11/16 00:52:25;;;;;;;8.53;6.10;;;;;;;;;;5114484;27;20499;-66
2023/11/16 00:54:51;;;;;;;13.07;6.03;;;;;;;;;;5112563;27;20447;-66
2023/11/16 00:57:18;;;;;;;8.70;5.67;;;;;;;;;;5121190;27;20503;-66
2023/11/16 00:59:46;;;;;;;9.80;5.27;;;;;;;;;;5113893;27;21110;-66
2023/11/16 01:02:14;;;;;;;11.93;5.87;;;;;;;;;;5115364;27;20452;-66
2023/11/16 01:04:41;;;;;;;8.80;7.00;;;;;;;;;;5129077;27;20488;-66
2023/11/16 01:07:13;;;;;;;14.37;6.27;;;;;;;;;;5120100;27;20474;-66
2023/11/16 01:09:39;;;;;;;13.80;5.30;;;;;;;;;;5119570;27;20443;-66
2023/11/16 01:12:11;;;;;;;9.40;5.37;;;;;;;;;;5121054;27;20454;-65
2023/11/16 01:14:39;;;;;;;13.50;5.33;;;;;;;;;;5119865;27;20458;-66
2023/11/16 01:17:11;;;;;;;18.33;5.73;;;;;;;;;;5119184;27;20510;-66
2023/11/16 01:19:45;;;;;;;10.53;5.37;;;;;;;;;;5115435;28;20450;-65
2023/11/16 01:22:15;;;;;;;14.40;5.40;;;;;;;;;;5115088;27;20461;-66
2023/11/16 01:24:41;;;;;;;9.27;5.07;;;;;;;;;;5113847;27;20820;-67
2023/11/16 01:27:15;;;;;;;12.67;5.27;;;;;;;;;;5113371;27;20489;-67
2023/11/16 01:29:43;;;;;;;10.90;5.97;;;;;;;;;;5121850;27;20522;-67
2023/11/16 01:32:09;;;;;;;9.50;4.80;;;;;;;;;;5108849;28;20513;-66
2023/11/16 01:34:36;;;;;;;6.57;4.87;;;;;;;;;;5114794;27;21162;-67
2023/11/16 01:37:05;;;;;;;15.37;4.93;;;;;;;;;;5110453;28;20455;-67
2023/11/16 01:39:31;;;;;;;11.47;4.80;;;;;;;;;;5114948;27;20461;-68
2023/11/16 01:41:58;;;;;;;14.47;5.67;;;;;;;;;;5106430;28;20461;-67
2023/11/16 01:44:25;;;;;;;8.67;4.53;;;;;;;;;;5104659;28;20458;-67
2023/11/16 01:46:52;;;;;;;7.77;4.23;;;;;;;;;;5114926;27;20549;-67
2023/11/16 01:49:19;;;;;;;18.67;5.70;;;;;;;;;;5110803;28;20514;-66
2023/11/16 01:51:46;;;;;;;7.10;3.73;;;;;;;;;;5116163;27;20485;-67
2023/11/16 01:54:15;;;;;;;9.20;4.60;;;;;;;;;;5121652;27;20437;-67
2023/11/16 01:56:42;;;;;;;8.60;5.10;;;;;;;;;;5116636;28;20941;-68
2023/11/16 01:59:09;;;;;;;9.00;3.90;;;;;;;;;;5113744;27;20445;-67
2023/11/16 02:01:35;;;;;;;6.93;4.37;;;;;;;;;;5124273;27;20489;-66
2023/11/16 02:04:03;;;;;;;10.40;4.03;;;;;;;;;;5119017;27;20446;-66
2023/11/16 02:06:29;;;;;;;12.33;3.60;;;;;;;;;;5124743;27;20220;-67
2023/11/16 02:08:56;;;;;;;10.43;4.03;;;;;;;;;;5125396;27;20485;-66
2023/11/16 02:11:23;;;;;;;5.43;3.67;;;;;;;;;;5119211;27;20521;-66
2023/11/16 02:13:50;;;;;;;11.20;3.10;;;;;;;;;;5107149;28;20453;-66
2023/11/16 02:16:16;;;;;;;12.23;4.20;;;;;;;;;;5122241;27;20446;-67
2023/11/16 02:18:43;;;;;;;7.87;3.70;;;;;;;;;;5114507;27;20470;-67
2023/11/16 02:21:09;;;;;;;5.80;3.60;;;;;;;;;;5122726;27;20487;-66
2023/11/16 02:23:37;;;;;;;6.50;3.47;;;;;;;;;;5124767;27;20442;-66
2023/11/16 02:26:04;;;;;;;8.43;3.60;;;;;;;;;;5113255;27;20516;-66
2023/11/16 02:28:31;;;;;;;7.20;4.10;;;;;;;;;;5113772;27;20459;-67
2023/11/16 02:31:00;;;;;;;13.77;4.10;;;;;;;;;;5128175;27;20464;-66
2023/11/16 02:33:27;;;;;;;17.93;4.63;;;;;;;;;;5118006;27;20897;-66
2023/11/16 02:35:54;;;;;;;6.70;3.80;;;;;;;;;;5118931;27;20478;-66
2023/11/16 02:38:20;;;;;;;8.17;3.60;;;;;;;;;;5115927;27;20512;-66
2023/11/16 02:40:49;;;;;;;10.23;4.37;;;;;;;;;;5125615;27;20473;-66
2023/11/16 02:43:16;;;;;;;8.33;3.40;;;;;;;;;;5124598;27;20491;-66
2023/11/16 02:45:43;;;;;;;7.67;3.50;;;;;;;;;;5119783;27;20454;-66
2023/11/16 02:48:09;;;;;;;14.83;4.53;;;;;;;;;;5121824;27;20497;-66
2023/11/16 02:50:36;;;;;;;11.10;4.03;;;;;;;;;;5112341;27;21016;-67
2023/11/16 02:53:03;;;;;;;8.57;3.80;;;;;;;;;;5129241;27;20449;-67
2023/11/16 02:55:29;;;;;;;12.57;4.33;;;;;;;;;;5124991;27;20937;-66
2023/11/16 02:57:57;;;;;;;14.27;4.67;;;;;;;;;;5121359;27;20476;-66
2023/11/16 03:00:24;;;;;;;11.33;4.20;;;;;;;;;;5118417;27;20453;-66
2023/11/16 03:02:51;;;;;;;8.73;4.17;;;;;;;;;;5120067;27;20485;-67
2023/11/16 03:05:21;;;;;;;7.87;3.67;;;;;;;;;;5119041;28;20472;-66
2023/11/16 03:07:49;;;;;;;15.53;4.80;;;;;;;;;;5125037;27;20492;-66
2023/11/16 03:10:16;;;;;;;10.60;4.20;;;;;;;;;;5110066;28;20514;-66
2023/11/16 03:12:44;;;;;;;9.70;3.90;;;;;;;;;;5117609;28;20530;-66
2023/11/16 03:15:12;;;;;;;15.40;4.23;;;;;;;;;;5110176;28;20449;-66
2023/11/16 03:17:39;;;;;;;5.23;3.97;;;;;;;;;;5109019;28;20526;-66
2023/11/16 03:20:08;;;;;;;5.23;3.97;;;;;;;;;;5112138;28;21178;-66
2023/11/16 03:22:35;;;;;;;10.50;3.87;;;;;;;;;;5120695;28;20480;-66
2023/11/16 03:25:02;;;;;;;7.60;3.93;;;;;;;;;;5122258;28;20453;-66
2023/11/16 03:27:30;;;;;;;11.70;4.30;;;;;;;;;;5114908;28;20483;-66
2023/11/16 03:29:56;;;;;;;5.50;3.93;;;;;;;;;;5108511;28;20446;-66
2023/11/16 03:32:25;;;;;;;12.87;3.93;;;;;;;;;;5123037;28;20557;-66
2023/11/16 03:34:52;;;;;;;11.70;3.53;;;;;;;;;;5118524;28;20443;-65
2023/11/16 03:37:19;;;;;;;8.87;3.20;;;;;;;;;;5117125;28;20513;-66
2023/11/16 03:39:45;;;;;;;5.60;3.10;;;;;;;;;;5117640;28;20529;-65
2023/11/16 03:42:11;;;;;;;4.13;3.63;;;;;;;;;;5122586;28;20553;-66
2023/11/16 03:44:38;;;;;;;8.77;3.10;;;;;;;;;;5113127;27;20494;-66
2023/11/16 03:47:05;;;;;;;5.77;3.67;;;;;;;;;;5119459;27;20478;-66
2023/11/16 03:49:32;;;;;;;6.73;3.40;;;;;;;;;;5122266;27;20444;-67
2023/11/16 03:51:59;;;;;;;6.77;3.33;;;;;;;;;;5116258;27;20462;-66
2023/11/16 03:54:25;;;;;;;6.83;3.83;;;;;;;;;;5124399;27;20448;-66
2023/11/16 03:56:53;;;;;;;9.80;3.70;;;;;;;;;;5124077;27;20477;-66
2023/11/16 03:59:21;;;;;;;8.80;3.00;;;;;;;;;;5118532;27;20449;-66
2023/11/16 04:01:48;;;;;;;6.30;3.60;;;;;;;;;;5130059;27;20522;-67
2023/11/16 04:04:15;;;;;;;6.63;4.40;;;;;;;;;;5119255;27;20473;-66
2023/11/16 04:06:43;;;;;;;10.00;3.40;;;;;;;;;;5121981;27;20451;-66
2023/11/16 04:09:09;;;;;;;9.30;4.10;;;;;;;;;;5110491;28;20464;-66
2023/11/16 04:11:40;;;;;;;11.10;3.80;;;;;;;;;;5116016;27;20461;-65
2023/11/16 04:14:07;;;;;;;6.73;4.23;;;;;;;;;;5119418;27;21134;-65
2023/11/16 04:16:35;;;;;;;10.07;4.10;;;;;;;;;;5126594;27;20514;-66
2023/11/16 04:19:02;;;;;;;6.10;3.80;;;;;;;;;;5111810;27;20485;-65
2023/11/16 04:21:29;;;;;;;8.53;4.30;;;;;;;;;;5112364;27;20519;-66
2023/11/16 04:23:57;;;;;;;7.90;4.10;;;;;;;;;;5122325;27;20499;-66
2023/11/16 04:26:24;;;;;;;6.23;4.23;;;;;;;;;;5110751;27;20453;-66
2023/11/16 04:28:51;;;;;;;7.37;4.40;;;;;;;;;;5127424;27;20491;-65
2023/11/16 04:31:18;;;;;;;9.60;5.23;;;;;;;;;;5109049;27;20446;-66
2023/11/16 04:33:45;;;;;;;8.30;5.13;;;;;;;;;;5124994;27;20506;-66
2023/11/16 04:36:16;;;;;;;11.23;4.30;;;;;;;;;;5126052;27;20838;-66
2023/11/16 04:38:43;;;;;;;11.47;4.60;;;;;;;;;;5123866;27;20989;-67
2023/11/16 04:41:10;;;;;;;11.50;4.20;;;;;;;;;;5120109;27;20681;-66
2023/11/16 04:43:37;;;;;;;9.20;4.80;;;;;;;;;;5118009;27;20489;-67
2023/11/16 04:46:04;;;;;;;7.20;3.90;;;;;;;;;;5116951;27;20446;-67
2023/11/16 04:48:32;;;;;;;10.40;4.80;;;;;;;;;;5121276;27;20481;-66
2023/11/16 04:50:59;;;;;;;11.23;4.70;;;;;;;;;;5115988;27;20449;-66
2023/11/16 04:53:27;;;;;;;5.37;4.27;;;;;;;;;;5128533;27;20458;-66
2023/11/16 04:55:54;;;;;;;8.50;4.23;;;;;;;;;;5108196;27;20514;-65
2023/11/16 04:58:22;;;;;;;7.70;4.07;;;;;;;;;;5122045;27;20478;-66
2023/11/16 05:00:48;;;;;;;9.10;3.87;;;;;;;;;;5105145;28;20443;-66
2023/11/16 05:03:15;;;;;;;6.63;4.10;;;;;;;;;;5118048;27;20512;-66
2023/11/16 05:05:41;;;;;;;5.10;4.57;;;;;;;;;;5125605;27;20487;-66
2023/11/16 05:08:08;;;;;;;7.57;3.63;;;;;;;;;;5114695;28;20481;-67
2023/11/16 05:10:34;;;;;;;4.70;3.60;;;;;;;;;;5115226;27;20460;-66
2023/11/16 05:13:00;;;;;;;10.13;4.27;;;;;;;;;;5116258;27;20450;-66
2023/11/16 05:15:28;;;;;;;6.03;3.80;;;;;;;;;;5120869;27;20461;-67
2023/11/16 05:17:55;;;;;;;10.00;4.53;;;;;;;;;;5130492;27;20492;-67
2023/11/16 05:20:22;;;;;;;10.17;4.27;;;;;;;;;;5120628;27;20480;-67
2023/11/16 05:22:49;;;;;;;6.93;3.80;;;;;;;;;;5118720;28;20457;-66
2023/11/16 05:25:15;;;;;;;9.43;4.37;;;;;;;;;;5113077;27;20451;-66
2023/11/16 05:27:42;;;;;;;7.03;4.03;;;;;;;;;;5112927;28;20523;-66
2023/11/16 05:30:09;;;;;;;5.83;3.60;;;;;;;;;;5110333;27;20473;-66
2023/11/16 05:32:37;;;;;;;5.07;3.40;;;;;;;;;;5116671;27;20842;-67
2023/11/16 05:35:04;;;;;;;6.00;3.80;;;;;;;;;;5105004;28;20535;-66
2023/11/16 05:37:30;;;;;;;6.27;4.00;;;;;;;;;;5116389;27;20457;-67
2023/11/16 05:39:58;;;;;;;7.00;2.90;;;;;;;;;;5126090;27;20492;-67
2023/11/16 05:42:26;;;;;;;4.63;3.53;;;;;;;;;;5116606;27;20458;-67
2023/11/16 05:44:53;;;;;;;8.63;2.93;;;;;;;;;;5113107;27;20450;-67
2023/11/16 05:47:19;;;;;;;6.60;3.23;;;;;;;;;;5116091;27;20481;-66
2023/11/16 05:49:47;;;;;;;3.30;3.00;;;;;;;;;;5119644;28;20489;-67
2023/11/16 05:52:14;;;;;;;4.30;2.90;;;;;;;;;;5110706;27;20511;-66
2023/11/16 05:54:40;;;;;;;5.27;3.50;;;;;;;;;;5112829;27;20535;-66
2023/11/16 05:57:06;;;;;;;8.87;4.20;;;;;;;;;;5114950;28;20514;-67
2023/11/16 05:59:33;;;;;;;13.33;4.83;;;;;;;;;;5119650;27;20529;-67
2023/11/16 06:02:00;;;;;;;3.97;3.57;;;;;;;;;;5115688;27;20453;-66
2023/11/16 06:04:27;;;;;;;6.70;3.67;;;;;;;;;;5115920;27;20456;-68
2023/11/16 06:06:55;;;;;;;9.77;3.50;;;;;;;;;;5117182;28;20453;-70
2023/11/16 06:09:21;;;;;;;6.67;3.47;;;;;;;;;;5117825;28;20514;-70
2023/11/16 06:11:48;;;;;;;7.00;3.50;;;;;;;;;;5115673;27;20454;-70
2023/11/16 06:14:14;;;;;;;13.63;3.50;;;;;;;;;;5120692;27;20476;-70
2023/11/16 06:16:43;;;;;;;4.10;3.70;;;;;;;;;;5113201;27;20510;-75
2023/11/16 06:19:10;;;;;;;7.23;4.17;;;;;;;;;;5114153;27;20463;-73
2023/11/16 06:21:36;;;;;;;14.33;3.10;;;;;;;;;;5109252;28;20544;-73
2023/11/16 06:24:04;;;;;;;3.90;2.70;;;;;;;;;;5118225;28;20492;-73
2023/11/16 06:26:31;;;;;;;9.00;3.77;;;;;;;;;;5125575;27;20446;-73
2023/11/16 06:28:57;;;;;;;5.70;3.00;;;;;;;;;;5097676;28;20486;-74
2023/11/16 06:31:24;;;;;;;8.80;4.30;;;;;;;;;;5088444;28;20470;-73
2023/11/16 06:33:50;;;;;;;7.00;4.10;;;;;;;;;;5103858;28;20462;-73
2023/11/16 06:36:17;;;;;;;8.53;3.70;;;;;;;;;;5108734;27;20489;-73
2023/11/16 06:38:43;;;;;;;8.47;3.60;;;;;;;;;;5113700;27;20867;-78
2023/11/16 06:41:11;;;;;;;5.77;3.30;;;;;;;;;;5098105;27;20498;-76
2023/11/16 06:43:38;;;;;;;4.60;3.50;;;;;;;;;;5109584;28;20458;-76
2023/11/16 06:46:04;;;;;;;8.17;3.70;;;;;;;;;;5109760;28;20453;-77
2023/11/16 06:48:31;;;;;;;11.83;3.37;;;;;;;;;;5112888;28;20490;-74
2023/11/16 06:50:58;;;;;;;14.90;3.67;;;;;;;;;;5123251;27;20457;-73
2023/11/16 06:53:26;;;;;;;6.67;3.43;;;;;;;;;;5116935;28;20985;-74
2023/11/16 06:55:53;;;;;;;9.10;4.03;;;;;;;;;;5111241;28;20441;-74
2023/11/16 06:58:22;;;;;;;10.53;4.60;;;;;;;;;;5119039;27;20919;-76
2023/11/16 07:00:50;;;;;;;8.30;4.70;;;;;;;;;;5108784;28;20534;-72
2023/11/16 07:03:17;;;;;;;6.13;3.70;;;;;;;;;;5119157;27;21042;-72
2023/11/16 07:05:43;;;;;;;7.23;4.30;;;;;;;;;;5121316;27;20864;-80
2023/11/16 07:08:10;;;;;;;6.43;4.43;;;;;;;;;;5114985;27;20493;-75
2023/11/16 07:10:37;;;;;;;11.20;4.70;;;;;;;;;;5118347;27;20450;-78
2023/11/16 07:13:03;;;;;;;13.30;3.80;;;;;;;;;;5119335;28;20486;-77
2023/11/16 07:15:32;;;;;;;6.87;3.77;;;;;;;;;;5104415;28;20709;-73
2023/11/16 07:17:58;;;;;;;7.90;3.97;;;;;;;;;;5109427;28;20455;-77
2023/11/16 07:20:25;;;;;;;8.00;4.53;;;;;;;;;;5121583;28;20442;-78
2023/11/16 07:22:51;;;;;;;8.80;4.07;;;;;;;;;;5125699;28;20449;-75
2023/11/16 07:25:20;;;;;;;9.50;4.40;;;;;;;;;;5109570;28;20531;-76
2023/11/16 07:27:47;;;;;;;6.50;4.37;;;;;;;;;;5103515;28;21185;-77
2023/11/16 07:30:14;;;;;;;5.43;4.20;;;;;;;;;;5117102;28;20464;-76
2023/11/16 07:32:43;;;;;;;8.33;4.97;;;;;;;;;;5117078;28;20593;-76
2023/11/16 07:35:15;;;;;;;9.10;5.47;;;;;;;;;;5107227;28;20810;-76
2023/11/16 07:37:44;;;;;;;7.23;5.13;;;;;;;;;;5106797;28;21074;-76
2023/11/16 07:40:11;;;;;;;6.80;4.13;;;;;;;;;;5109739;28;20446;-77
2023/11/16 07:42:39;;;;;;;9.73;4.73;;;;;;;;;;5112615;28;20569;-76
2023/11/16 07:45:09;;;;;;;9.47;4.17;;;;;;;;;;5119615;28;21060;-77
2023/11/16 07:47:37;;;;;;;9.00;4.97;;;;;;;;;;5121465;28;20537;-76
2023/11/16 07:50:06;;;;;;;9.17;5.53;;;;;;;;;;5126851;28;20460;-76
2023/11/16 07:52:42;;;;;;;8.70;6.27;;;;;;;;;;5109962;28;20462;-75
2023/11/16 07:55:09;;;;;;;10.03;7.30;;;;;;;;;;5117918;28;20454;-79
2023/11/16 07:57:36;;;;;;;17.50;8.03;;;;;;;;;;5105195;28;20455;-77
2023/11/16 08:00:08;;;;;;;10.87;7.30;;;;;;;;;;5115111;28;20460;-77
2023/11/16 08:03:41;;;;;;;9.63;6.43;;;;;;;;;;5109435;28;21198;-78
2023/11/16 08:05:26;;;;;;;7.10;6.40;;;;;;;;;;5110340;28;20453;-78
2023/11/16 08:07:52;;;;;;;7.60;6.40;;;;;;;;;;5119457;28;20461;-80
2023/11/16 08:10:21;;;;;;;11.73;6.80;;;;;;;;;;5112867;28;20441;-72
2023/11/16 08:12:50;;;;;;;9.07;6.70;;;;;;;;;;5112713;28;20525;-74
2023/11/16 08:15:23;;;;;;;12.07;6.73;;;;;;;;;;5116759;28;20480;-79
2023/11/16 08:17:52;;;;;;;9.60;5.93;;;;;;;;;;5122280;28;20450;-73
2023/11/16 08:20:22;;;;;;;7.53;6.30;;;;;;;;;;5105314;28;20473;-80
2023/11/16 08:22:50;;;;;;;8.00;6.20;;;;;;;;;;5114348;28;20458;-78
2023/11/16 08:25:17;;;;;;;14.17;7.63;;;;;;;;;;5109451;28;20459;-79
2023/11/16 08:27:44;;;;;;;10.60;6.93;;;;;;;;;;5112789;28;20450;-84
2023/11/16 08:30:11;;;;;;;6.80;6.20;;;;;;;;;;5121398;27;20488;-79
2023/11/16 08:32:38;;;;;;;7.63;6.67;;;;;;;;;;5126984;27;20487;-78
2023/11/16 08:35:04;;;;;;;9.03;6.70;;;;;;;;;;5121240;27;20434;-76
2023/11/16 08:37:31;;;;;;;10.50;6.47;;;;;;;;;;5122899;28;20970;-76
2023/11/16 08:39:59;;;;;;;7.63;5.90;;;;;;;;;;5121585;28;20450;-77
2023/11/16 08:42:25;;;;;;;7.23;6.50;;;;;;;;;;5120657;27;20469;-79
2023/11/16 08:44:52;;;;;;;8.90;7.57;;;;;;;;;;5112286;28;20439;-73
2023/11/16 08:47:20;;;;;;;8.10;7.17;;;;;;;;;;5118117;27;20877;-70
2023/11/16 08:49:47;;;;;;;7.47;6.60;;;;;;;;;;5125248;27;20517;-73
2023/11/16 08:52:14;;;;;;;7.93;7.10;;;;;;;;;;5112310;27;21097;-72
2023/11/16 08:54:41;;;;;;;9.50;6.40;;;;;;;;;;5116728;28;20535;-75
2023/11/16 08:57:09;;;;;;;7.93;7.20;;;;;;;;;;5127444;27;20545;-74
2023/11/16 08:59:37;;;;;;;9.50;7.90;;;;;;;;;;5113017;27;20465;-80
2023/11/16 09:02:04;;;;;;;12.13;7.70;;;;;;;;;;5116636;28;20938;-80
2023/11/16 09:04:30;;;;;;;7.70;7.00;;;;;;;;;;5112415;28;20728;-76
2023/11/16 09:06:58;;;;;;;8.57;7.37;;;;;;;;;;5114523;27;20779;-76
2023/11/16 09:09:37;;;;;;;8.57;6.80;;;;;;;;;;5103123;28;20489;-76
2023/11/16 09:12:05;;;;;;;7.40;6.70;;;;;;;;;;5115198;27;20476;-74
2023/11/16 09:14:34;;;;;;;8.47;7.10;;;;;;;;;;5114042;27;20821;-77
2023/11/16 09:17:02;;;;;;;12.10;7.20;;;;;;;;;;5116995;27;20447;-75
2023/11/16 09:19:29;;;;;;;7.40;6.70;;;;;;;;;;5116781;28;20458;-75
2023/11/16 09:21:55;;;;;;;6.70;6.10;;;;;;;;;;5116254;28;20460;-76
2023/11/16 09:24:22;;;;;;;9.77;6.60;;;;;;;;;;5115613;28;20455;-79
2023/11/16 09:26:50;;;;;;;8.83;6.20;;;;;;;;;;5109784;28;20523;-82
2023/11/16 09:29:18;;;;;;;7.63;6.93;;;;;;;;;;5116558;27;20478;-81
2023/11/16 09:31:47;;;;;;;7.70;6.50;;;;;;;;;;5096098;28;20483;-78
2023/11/16 09:34:16;;;;;;;6.90;6.33;;;;;;;;;;5117864;27;20525;-67
2023/11/16 09:36:43;;;;;;;8.37;7.03;;;;;;;;;;5119270;28;20446;-69
2023/11/16 09:39:11;;;;;;;7.67;5.90;;;;;;;;;;5119775;27;20465;-67
2023/11/16 09:41:40;;;;;;;10.93;6.47;;;;;;;;;;5114206;27;20434;-68
2023/11/16 09:44:08;;;;;;;6.33;5.83;;;;;;;;;;5119569;27;20446;-68
2023/11/16 09:46:37;;;;;;;6.20;5.80;;;;;;;;;;5118915;28;20462;-67
2023/11/16 09:49:05;;;;;;;6.20;5.70;;;;;;;;;;5121223;27;20477;-69
2023/11/16 09:51:33;;;;;;;6.83;5.97;;;;;;;;;;5103722;28;20472;-66
2023/11/16 09:54:01;;;;;;;6.53;5.93;;;;;;;;;;5115570;27;20473;-72
2023/11/16 09:56:30;;;;;;;6.43;5.93;;;;;;;;;;5117618;27;20498;-69
2023/11/16 09:59:03;;;;;;;6.47;6.00;;;;;;;;;;5114272;28;20540;-68
2023/11/16 10:01:31;;;;;;;5.40;5.00;;;;;;;;;;5122441;27;20450;-65
2023/11/16 10:03:59;;;;;;;6.57;6.13;;;;;;;;;;5110998;27;20459;-71
2023/11/16 10:06:29;;;;;;;11.07;6.30;;;;;;;;;;5106900;27;20457;-67
2023/11/16 10:08:56;;;;;;;5.63;5.30;;;;;;;;;;5120993;27;20497;-69
2023/11/16 10:11:23;;;;;;;6.30;5.80;;;;;;;;;;5113058;28;21033;-68
2023/11/16 10:13:53;;;;;;;5.90;5.27;;;;;;;;;;5112281;28;20537;-68
2023/11/16 10:16:25;;;;;;;5.87;5.47;;;;;;;;;;5107663;28;20434;-68
2023/11/16 10:18:58;;;;;;;5.07;4.57;;;;;;;;;;5112396;27;20558;-67
2023/11/16 10:21:25;;;;;;;5.30;4.80;;;;;;;;;;5123419;27;20450;-69
2023/11/16 10:23:52;;;;;;;6.33;4.73;;;;;;;;;;5114502;27;20454;-68
2023/11/16 10:26:19;;;;;;;5.30;4.77;;;;;;;;;;5109300;28;20435;-66
2023/11/16 10:28:53;;;;;;;5.20;4.90;;;;;;;;;;5124557;27;20494;-68
2023/11/16 10:31:20;;;;;;;5.10;4.70;;;;;;;;;;5114660;28;20469;-69
2023/11/16 10:33:47;;;;;;;5.23;4.53;;;;;;;;;;5112829;28;20508;-68
2023/11/16 10:36:14;;;;;;;4.90;4.60;;;;;;;;;;5109749;28;20457;-68
2023/11/16 10:38:41;;;;;;;5.07;4.67;;;;;;;;;;5108899;28;20480;-68
2023/11/16 10:41:10;;;;;;;5.10;4.60;;;;;;;;;;5111246;28;20533;-68
2023/11/16 10:43:38;;;;;;;5.73;5.20;;;;;;;;;;5116343;27;20494;-67
2023/11/16 10:46:05;;;;;;;4.70;4.30;;;;;;;;;;5116924;27;20446;-69
2023/11/16 10:48:32;;;;;;;4.30;4.00;;;;;;;;;;5107100;28;20484;-67
2023/11/16 10:51:01;;;;;;;6.80;4.07;;;;;;;;;;5116955;28;20449;-71
2023/11/16 10:53:32;;;;;;;4.83;4.60;;;;;;;;;;5109967;28;20877;-67
2023/11/16 10:56:00;;;;;;;5.30;4.13;;;;;;;;;;5107834;28;20450;-68
2023/11/16 10:58:29;;;;;;;5.17;4.67;;;;;;;;;;5106975;27;20450;-69
2023/11/16 11:00:56;;;;;;;4.70;4.30;;;;;;;;;;5114557;27;20975;-69
2023/11/16 11:03:23;;;;;;;4.80;4.30;;;;;;;;;;5114802;28;20454;-70
2023/11/16 11:05:52;;;;;;;7.13;4.10;;;;;;;;;;5114132;28;20477;-68
2023/11/16 11:08:19;;;;;;;5.40;3.80;;;;;;;;;;5119245;28;20458;-67
2023/11/16 11:10:47;;;;;;;4.70;4.30;;;;;;;;;;5122552;27;20480;-69
2023/11/16 11:13:14;;;;;;;4.43;4.03;;;;;;;;;;5112187;28;20458;-67
2023/11/16 11:15:48;;;;;;;4.10;3.37;;;;;;;;;;5095715;28;20504;-68
2023/11/16 11:18:24;;;;;;;4.00;3.70;;;;;;;;;;5113223;27;20463;-68
2023/11/16 11:20:52;;;;;;;5.73;4.33;;;;;;;;;;5116250;28;20450;-68
2023/11/16 11:23:19;;;;;;;3.97;3.60;;;;;;;;;;5111131;28;20468;-66
2023/11/16 11:25:48;;;;;;;3.80;3.50;;;;;;;;;;5109681;28;20447;-67
2023/11/16 11:28:15;;;;;;;5.10;4.70;;;;;;;;;;5115564;28;21056;-65
2023/11/16 11:30:49;;;;;;;5.50;3.47;;;;;;;;;;5110219;28;20503;-68
2023/11/16 11:33:18;;;;;;;6.90;3.80;;;;;;;;;;5113454;28;20473;-68
2023/11/16 11:35:48;;;;;;;3.67;3.23;;;;;;;;;;5125295;28;20453;-69
2023/11/16 11:38:19;;;;;;;5.50;3.80;;;;;;;;;;5112539;28;20486;-68
2023/11/16 11:40:48;;;;;;;5.93;4.00;;;;;;;;;;5117256;28;20543;-69
2023/11/16 11:43:21;;;;;;;3.83;3.40;;;;;;;;;;5111830;28;20463;-69
2023/11/16 11:45:48;;;;;;;4.13;3.47;;;;;;;;;;5119029;28;20464;-69
2023/11/16 11:48:16;;;;;;;4.33;3.50;;;;;;;;;;5121125;28;20470;-69
2023/11/16 11:50:42;;;;;;;3.90;2.90;;;;;;;;;;5124710;28;20994;-68
2023/11/16 11:53:12;;;;;;;3.60;3.30;;;;;;;;;;5106545;28;20515;-69
2023/11/16 11:55:38;;;;;;;5.30;4.10;;;;;;;;;;5112095;28;20450;-68
2023/11/16 11:58:04;;;;;;;7.67;3.53;;;;;;;;;;5105700;28;20474;-67
2023/11/16 12:00:31;;;;;;;5.50;3.60;;;;;;;;;;5119452;28;20507;-67
2023/11/16 12:02:57;;;;;;;3.90;3.60;;;;;;;;;;5107942;28;21030;-72
2023/11/16 12:05:26;;;;;;;4.70;4.30;;;;;;;;;;5111301;28;20450;-69
2023/11/16 12:07:59;;;;;;;5.53;5.00;;;;;;;;;;5121242;27;20454;-67
2023/11/16 12:10:25;;;;;;;5.17;4.20;;;;;;;;;;5120987;27;20540;-67
2023/11/16 12:12:52;;;;;;;5.10;4.70;;;;;;;;;;5110127;27;20463;-66
2023/11/16 12:15:18;;;;;;;4.70;4.40;;;;;;;;;;5111992;27;20514;-72
2023/11/16 12:17:44;;;;;;;3.90;3.70;;;;;;;;;;5115575;28;20472;-73
2023/11/16 12:20:12;;;;;;;4.67;4.27;;;;;;;;;;5124039;27;20449;-75
2023/11/16 12:22:41;;;;;;;4.13;3.83;;;;;;;;;;5112166;28;20465;-73
2023/11/16 12:25:11;;;;;;;4.87;4.40;;;;;;;;;;5113186;28;20459;-69
2023/11/16 12:27:41;;;;;;;11.23;4.37;;;;;;;;;;5109623;28;20452;-67
2023/11/16 12:30:15;;;;;;;5.80;4.27;;;;;;;;;;5125924;27;20481;-67
2023/11/16 12:32:40;;;;;;;5.23;4.47;;;;;;;;;;5117618;27;20473;-67
2023/11/16 12:35:10;;;;;;;4.13;3.83;;;;;;;;;;5112596;27;20989;-69
2023/11/16 12:37:38;;;;;;;4.20;3.80;;;;;;;;;;5125124;27;20269;-73
2023/11/16 12:40:09;;;;;;;5.50;5.10;;;;;;;;;;5114960;27;20451;-69
2023/11/16 12:42:35;;;;;;;4.47;4.03;;;;;;;;;;5118772;28;20483;-70
2023/11/16 12:45:02;;;;;;;4.03;3.60;;;;;;;;;;5116655;28;20450;-69
2023/11/16 12:47:29;;;;;;;2.97;2.77;;;;;;;;;;5112027;27;20454;-68
2023/11/16 12:49:56;;;;;;;3.60;3.30;;;;;;;;;;5112328;28;20899;-70
2023/11/16 12:52:23;;;;;;;4.10;3.00;;;;;;;;;;5108884;28;20479;-69
2023/11/16 12:54:51;;;;;;;3.30;3.00;;;;;;;;;;5111166;27;20461;-68
2023/11/16 12:57:19;;;;;;;3.73;3.20;;;;;;;;;;5117309;28;20454;-66
2023/11/16 12:59:46;;;;;;;5.77;3.33;;;;;;;;;;5103848;28;20474;-72
2023/11/16 13:02:12;;;;;;;5.60;4.43;;;;;;;;;;5114530;27;20453;-73
2023/11/16 13:04:39;;;;;;;4.10;3.60;;;;;;;;;;5112425;27;20982;-66
2023/11/16 13:07:05;;;;;;;6.37;3.60;;;;;;;;;;5110425;27;21186;-70
2023/11/16 13:09:31;;;;;;;6.17;3.37;;;;;;;;;;5116558;28;20928;-65
2023/11/16 13:11:58;;;;;;;4.60;4.30;;;;;;;;;;5113619;27;21008;-68
2023/11/16 13:14:26;;;;;;;4.97;4.50;;;;;;;;;;5119752;27;20482;-71
2023/11/16 13:16:52;;;;;;;5.80;5.30;;;;;;;;;;5116492;27;20485;-66
2023/11/16 13:19:19;;;;;;;5.27;4.67;;;;;;;;;;5116396;28;20512;-65
2023/11/16 13:21:45;;;;;;;8.10;4.63;;;;;;;;;;5111956;27;20453;-65
2023/11/16 13:24:11;;;;;;;4.67;4.37;;;;;;;;;;5114118;28;20454;-67
2023/11/16 13:26:40;;;;;;;5.17;4.77;;;;;;;;;;5116528;27;20473;-65
2023/11/16 13:29:06;;;;;;;4.20;3.80;;;;;;;;;;5112513;27;20459;-67
2023/11/16 13:31:34;;;;;;;7.33;6.10;;;;;;;;;;5113846;28;20505;-67
2023/11/16 13:34:01;;;;;;;7.73;4.87;;;;;;;;;;5113047;27;20455;-67
2023/11/16 13:36:28;;;;;;;5.47;3.40;;;;;;;;;;5117291;27;20457;-65
2023/11/16 13:38:57;;;;;;;4.20;3.50;;;;;;;;;;5108695;27;20693;-70
2023/11/16 13:41:23;;;;;;;4.70;3.13;;;;;;;;;;5115803;28;20458;-69
2023/11/16 13:43:50;;;;;;;9.27;3.60;;;;;;;;;;5113537;28;20456;-68
2023/11/16 13:46:16;;;;;;;3.87;3.57;;;;;;;;;;5109283;28;20537;-67
2023/11/16 13:48:45;;;;;;;3.50;3.10;;;;;;;;;;5107927;28;20493;-68
2023/11/16 13:51:11;;;;;;;3.50;3.20;;;;;;;;;;5114848;27;20474;-66
2023/11/16 13:53:38;;;;;;;3.80;3.50;;;;;;;;;;5109777;27;20454;-66
2023/11/16 13:56:05;;;;;;;3.70;3.40;;;;;;;;;;5122077;27;20526;-69
2023/11/16 13:58:31;;;;;;;3.63;3.23;;;;;;;;;;5117738;27;20470;-68
2023/11/16 14:00:58;;;;;;;3.50;2.93;;;;;;;;;;5119719;27;21251;-69
2023/11/16 14:03:25;;;;;;;3.63;3.30;;;;;;;;;;5114963;27;20965;-69
2023/11/16 14:05:53;;;;;;;4.40;4.00;;;;;;;;;;5106063;28;20432;-68
2023/11/16 14:08:19;;;;;;;4.67;4.10;;;;;;;;;;5105329;27;20467;-69
2023/11/16 14:10:46;;;;;;;10.27;4.60;;;;;;;;;;5108138;27;20478;-70
2023/11/16 14:13:12;;;;;;;4.70;4.23;;;;;;;;;;5104467;28;20455;-67
2023/11/16 14:15:38;;;;;;;4.13;3.73;;;;;;;;;;5116311;27;20470;-67
2023/11/16 14:18:05;;;;;;;4.30;3.90;;;;;;;;;;5111868;28;20446;-68
2023/11/16 14:20:32;;;;;;;3.70;3.40;;;;;;;;;;5115874;27;20553;-66
2023/11/16 14:22:59;;;;;;;5.37;3.50;;;;;;;;;;5115565;27;20450;-68
2023/11/16 14:25:28;;;;;;;4.80;3.73;;;;;;;;;;5118453;27;20928;-70
2023/11/16 14:27:55;;;;;;;6.23;3.67;;;;;;;;;;5120508;27;20457;-71
2023/11/16 14:30:22;;;;;;;7.70;3.90;;;;;;;;;;5099434;28;20586;-66
2023/11/16 14:32:48;;;;;;;3.30;3.00;;;;;;;;;;5113222;28;20483;-67
2023/11/16 14:35:15;;;;;;;3.57;2.80;;;;;;;;;;5107334;28;20451;-73
2023/11/16 14:37:41;;;;;;;4.80;3.33;;;;;;;;;;5104689;27;20779;-73
2023/11/16 14:40:11;;;;;;;4.73;2.50;;;;;;;;;;5109976;28;20491;-78
2023/11/16 14:42:38;;;;;;;3.97;3.60;;;;;;;;;;5103055;27;20463;-75